ADDS METAR Data INFO
IDs: Format: Raw Decoded Include TAF

Data at: 0206 UTC 14 Dec 2017

KTLH 140153Z 00000KT 10SM CLR 08/01 A3002 RMK AO2 SLP166 T00780011
KTLH 140053Z 24006KT 10SM CLR 08/02 A3003 RMK AO2 SLP169 T00830017
KTLH 132353Z 21006KT 10SM CLR 09/02 A3003 RMK AO2 SLP170 T00890017 10150 20089 56001
KTLH 132253Z 18006KT 10SM FEW250 09/M01 A3004 RMK AO2 SLP171 T00941011
KTLH 132153Z 25005KT 10SM CLR 14/M06 A3003 RMK AO2 SLP166 T01441061
KTLH 132053Z COR 26007KT 210V290 10SM CLR 15/M07 A3003 RMK AO2 SLP169 T01501072 56021
KTLH 131953Z VRB04KT 10SM CLR 14/M08 A3005 RMK AO2 SLP174 T01441078
KTLH 131853Z 28005KT 10SM FEW250 13/M08 A3007 RMK AO2 SLP180 T01331078
KTLH 131753Z 22003KT 10SM FEW250 12/M06 A3010 RMK AO2 SLP190 T01171061 10122 21006 58023
KTLH 131653Z 34004KT 10SM FEW250 10/M06 A3014 RMK AO2 SLP204 T01001056
KTLH 131553Z 36003KT 10SM CLR 08/M05 A3017 RMK AO2 SLP216 T00831050
KTLH 131453Z 01008KT 10SM CLR 07/M04 A3017 RMK AO2 SLP215 T00671039 51013
KTLH 131353Z 34005KT 10SM CLR 05/M01 A3016 RMK AO2 SLP214 T00501006
KTLH 131253Z 28004KT 10SM CLR M01/M02 A3015 RMK AO2 SLP208 T10061017
KTLH 131153Z 25005KT 10SM CLR 01/M01 A3013 RMK AO2 SLP202 T00111011 10050 20006 53020
KTLH 131053Z COR 00000KT 10SM CLR 01/M01 A3009 RMK AO2 SLP190 T00111011
KTLH 130953Z AUTO 00000KT 10SM CLR 02/M01 A3008 RMK AO2 PK WND 09027/0931 SLP184 T00221006
KTLH 130853Z AUTO 32006KT 10SM CLR 04/01 A3007 RMK AO2 SLP181 T00440006 53002
KTLH 130753Z AUTO 32005KT 10SM CLR 05/02 A3006 RMK AO2 SLP180 T00500017
KTLH 130653Z AUTO 32004KT 10SM CLR 04/01 A3006 RMK AO2 SLP178 T00390011
KTLH 130553Z AUTO 28003KT 10SM CLR 05/01 A3006 RMK AO2 SLP178 T00500011 10089 20039 50000
KTLH 130453Z AUTO 31006KT 10SM CLR 07/02 A3006 RMK AO2 SLP179 T00670017 401780011
KTLH 130353Z 31007KT 10SM CLR 07/02 A3006 RMK AO2 SLP179 LAST T00670017
KTLH 130253Z 31007KT 10SM CLR 06/02 A3006 RMK AO2 SLP178 T00610017 51018
KTLH 130153Z 32003KT 10SM CLR 06/01 A3004 RMK AO2 SLP173 T00560011
KTLH 130053Z 00000KT 10SM CLR 06/01 A3003 RMK AO2 SLP168 T00560011
KTLH 122353Z 27003KT 10SM CLR 09/01 A3001 RMK AO2 SLP161 T00890011 10178 20089 53022
KTLH 122253Z 30008KT 10SM CLR 13/01 A2998 RMK AO2 SLP151 T01330006
KTLH 122153Z 32010KT 10SM CLR 16/00 A2996 RMK AO2 SLP143 T01560000
KTLH 122053Z 31017G23KT 10SM CLR 17/00 A2994 RMK AO2 SLP137 T01670000 55005
KTLH 121953Z 32016KT 10SM CLR 17/01 A2993 RMK AO2 SLP134 T01720006
KTLH 121853Z 29021G28KT 10SM CLR 17/01 A2994 RMK AO2 PK WND 29028/1853 SLP137 T01720011
KTLH 121753Z 31017G26KT 10SM CLR 17/02 A2996 RMK AO2 PK WND 30026/1748 SLP142 T01720017 10172 20011 58010
KTLH 121653Z 31011KT 10SM CLR 17/04 A2998 RMK AO2 SLP150 T01720044
KTLH 121553Z 28010KT 10SM CLR 16/06 A2997 RMK AO2 SLP149 T01560056
KTLH 121453Z 28012KT 10SM CLR 14/07 A2998 RMK AO2 SLP152 T01390067 51004